Time;durP1;ratioP1;P1;durP2;ratioP2;P2;SDS_P1;SDS_P2;PMS_P1;PMS_P2;Temp;Humidity;BMP_temperature;BMP_pressure;BME280_temperature;BME280_humidity;BME280_pressure;Samples;Min_cycle;Max_cycle;Signal;HPM_P1;HPM_P2
2022/07/10 00:01:00;;;;;;;3.55;1.25;;;;;;;17.22;54.19;101300.97;5072832;28;20512;-66
2022/07/10 00:03:27;;;;;;;3.38;1.25;;;;;;;17.18;54.25;101297.19;5070499;28;20389;-67
2022/07/10 00:05:55;;;;;;;5.13;1.90;;;;;;;17.18;54.23;101292.38;5074105;28;20075;-66
2022/07/10 00:08:22;;;;;;;4.30;2.00;;;;;;;17.19;54.35;101290.38;5073838;28;20052;-67
2022/07/10 00:10:49;;;;;;;3.45;1.55;;;;;;;17.16;54.59;101296.69;5074024;28;20052;-66
2022/07/10 00:13:17;;;;;;;3.03;1.10;;;;;;;17.15;54.29;101295.03;5071635;28;20049;-65
2022/07/10 00:15:45;;;;;;;4.53;1.15;;;;;;;17.11;54.49;101296.88;5073548;28;20480;-65
2022/07/10 00:18:12;;;;;;;3.33;1.40;;;;;;;17.08;54.65;101283.47;5073190;28;20064;-65
2022/07/10 00:20:40;;;;;;;2.97;1.48;;;;;;;17.08;54.99;101294.75;5073949;28;20059;-65
2022/07/10 00:23:07;;;;;;;4.05;1.30;;;;;;;17.08;54.64;101289.13;5069301;28;20052;-66
2022/07/10 00:25:35;;;;;;;4.28;1.60;;;;;;;17.04;54.65;101292.59;5072864;28;20056;-65
2022/07/10 00:28:02;;;;;;;4.05;1.35;;;;;;;17.01;55.03;101292.47;5073241;28;20453;-65
2022/07/10 00:30:30;;;;;;;3.65;1.17;;;;;;;17.03;55.03;101290.13;5065252;28;20060;-64
2022/07/10 00:32:59;;;;;;;4.88;1.73;;;;;;;17.04;55.00;101281.31;5053192;28;20421;-64
2022/07/10 00:35:26;;;;;;;2.42;1.40;;;;;;;17.06;55.02;101294.25;5053457;28;20052;-67
2022/07/10 00:37:54;;;;;;;2.95;1.27;;;;;;;17.03;55.13;101285.31;5053036;28;20060;-66
2022/07/10 00:40:21;;;;;;;4.15;1.50;;;;;;;16.95;55.03;101294.63;5057004;28;20045;-67
2022/07/10 00:42:49;;;;;;;3.88;1.10;;;;;;;16.94;55.30;101287.34;5073121;28;20052;-67
2022/07/10 00:45:16;;;;;;;5.90;1.25;;;;;;;16.90;55.29;101289.16;5072809;28;20049;-66
2022/07/10 00:47:44;;;;;;;3.53;1.20;;;;;;;16.93;55.23;101276.44;5073048;28;20068;-65
2022/07/10 00:50:13;;;;;;;7.45;1.95;;;;;;;16.91;55.38;101288.03;5071117;28;20063;-67
2022/07/10 00:52:41;;;;;;;4.43;1.25;;;;;;;16.88;55.29;101268.97;5071346;28;20044;-67
2022/07/10 00:55:10;;;;;;;3.92;1.13;;;;;;;16.88;55.44;101270.97;5072891;28;20055;-67
2022/07/10 00:57:39;;;;;;;5.20;1.40;;;;;;;16.91;55.30;101279.56;5073223;28;20053;-67
2022/07/10 01:00:11;;;;;;;4.13;1.13;;;;;;;16.87;55.51;101272.97;5072803;28;20055;-66
2022/07/10 01:02:42;;;;;;;4.00;1.30;;;;;;;16.89;55.95;101279.09;5065952;28;20474;-66
2022/07/10 01:05:09;;;;;;;3.80;1.48;;;;;;;16.86;55.93;101271.31;5069352;28;20048;-66
2022/07/10 01:07:38;;;;;;;5.00;1.45;;;;;;;16.87;56.04;101275.78;5072673;28;20396;-67
2022/07/10 01:10:06;;;;;;;3.93;1.03;;;;;;;16.80;56.16;101267.03;5072672;28;20063;-65
2022/07/10 01:12:33;;;;;;;3.95;1.35;;;;;;;16.87;56.20;101266.53;5072804;28;20056;-67
2022/07/10 01:15:01;;;;;;;4.63;1.38;;;;;;;16.85;56.39;101261.22;5069307;28;20052;-64
2022/07/10 01:17:29;;;;;;;4.60;1.20;;;;;;;16.90;56.34;101263.03;5072370;28;20052;-65
2022/07/10 01:19:56;;;;;;;4.90;1.63;;;;;;;16.91;56.29;101250.63;5072314;28;20052;-64
2022/07/10 01:22:25;;;;;;;3.83;1.40;;;;;;;16.92;56.22;101253.06;5072547;28;20397;-65
2022/07/10 01:24:52;;;;;;;5.10;1.47;;;;;;;16.91;56.54;101251.44;5066671;28;20056;-64
2022/07/10 01:27:19;;;;;;;5.22;1.58;;;;;;;16.92;56.43;101249.44;5071796;28;20053;-66
2022/07/10 01:29:47;;;;;;;4.32;1.33;;;;;;;16.91;56.47;101259.88;5071920;28;20063;-66
2022/07/10 01:32:15;;;;;;;3.97;1.20;;;;;;;16.88;56.41;101249.28;5071729;28;20056;-66
2022/07/10 01:34:42;;;;;;;3.78;1.20;;;;;;;16.87;56.30;101246.84;5069327;28;20057;-65
2022/07/10 01:37:09;;;;;;;4.43;1.30;;;;;;;16.87;56.52;101244.03;5072024;28;20048;-66
2022/07/10 01:39:38;;;;;;;4.03;1.30;;;;;;;16.84;56.35;101246.34;5072279;28;20053;-66
2022/07/10 01:42:06;;;;;;;6.07;1.20;;;;;;;16.84;56.37;101242.72;5071766;28;20048;-66
2022/07/10 01:44:33;;;;;;;4.50;1.27;;;;;;;16.83;56.43;101247.50;5070918;28;20059;-65
2022/07/10 01:47:00;;;;;;;5.97;1.13;;;;;;;16.86;56.73;101240.34;5069921;28;20052;-66
2022/07/10 01:49:27;;;;;;;5.22;1.20;;;;;;;16.83;56.52;101241.03;5072005;28;20055;-66
2022/07/10 01:51:55;;;;;;;3.47;1.10;;;;;;;16.80;56.59;101248.19;5071754;28;20060;-66
2022/07/10 01:54:22;;;;;;;4.75;1.13;;;;;;;16.76;56.63;101244.34;5071818;28;20053;-66
2022/07/10 01:56:51;;;;;;;5.53;1.38;;;;;;;16.76;56.54;101241.53;5067342;28;20052;-66
2022/07/10 01:59:18;;;;;;;4.13;1.33;;;;;;;16.72;56.64;101237.75;5068457;28;20052;-66
2022/07/10 02:01:45;;;;;;;5.28;1.50;;;;;;;16.70;56.51;101234.44;5071723;28;20303;-66
2022/07/10 02:06:57;;;;;;;5.45;1.33;;;;;;;16.66;56.94;101229.84;5075609;28;20123;-63
2022/07/10 02:09:24;;;;;;;3.45;1.17;;;;;;;16.63;56.80;101220.06;5071828;28;20361;-66
2022/07/10 02:11:53;;;;;;;6.45;1.30;;;;;;;16.64;56.76;101221.75;5071866;28;20053;-66
2022/07/10 02:14:20;;;;;;;3.47;1.13;;;;;;;16.66;56.61;101218.59;5071735;28;20064;-66
2022/07/10 02:16:48;;;;;;;4.40;1.35;;;;;;;16.63;56.81;101223.72;5069761;28;20405;-66
2022/07/10 02:19:15;;;;;;;4.22;1.20;;;;;;;16.63;56.89;101226.53;5071389;28;20420;-66
2022/07/10 02:21:42;;;;;;;3.67;1.05;;;;;;;16.64;57.03;101224.56;5071460;28;20394;-66
2022/07/10 02:24:10;;;;;;;4.60;1.45;;;;;;;16.56;57.37;101220.59;5067561;28;20403;-66
2022/07/10 02:26:37;;;;;;;5.28;1.02;;;;;;;16.63;57.30;101225.69;5051003;28;20477;-66
2022/07/10 02:29:05;;;;;;;4.70;1.42;;;;;;;16.64;57.22;101222.56;5054356;28;20049;-66
2022/07/10 02:31:34;;;;;;;3.47;1.23;;;;;;;16.61;57.37;101231.69;5071289;28;20049;-66
2022/07/10 02:34:01;;;;;;;4.78;1.25;;;;;;;16.58;57.65;101218.28;5069921;28;20052;-64
2022/07/10 02:36:29;;;;;;;4.28;1.25;;;;;;;16.59;57.47;101217.13;5068892;28;20393;-65
2022/07/10 02:38:56;;;;;;;4.43;1.65;;;;;;;16.59;57.64;101214.31;5072951;28;20064;-66
2022/07/10 02:41:23;;;;;;;4.88;1.40;;;;;;;16.56;57.26;101206.53;5073549;28;20064;-66
2022/07/10 02:43:51;;;;;;;4.05;1.35;;;;;;;16.60;57.30;101215.94;5075618;28;20055;-66
2022/07/10 02:46:19;;;;;;;3.95;1.05;;;;;;;16.59;57.27;101211.50;5075381;28;20056;-66
2022/07/10 02:48:46;;;;;;;5.80;1.43;;;;;;;16.59;57.15;101211.50;5075612;28;20409;-66
2022/07/10 02:51:14;;;;;;;5.13;1.35;;;;;;;16.55;57.26;101207.72;5074301;28;20049;-66
2022/07/10 02:53:41;;;;;;;4.47;1.13;;;;;;;16.55;57.35;101213.34;5073555;28;20048;-66
2022/07/10 02:56:08;;;;;;;4.90;1.10;;;;;;;16.59;57.47;101210.69;5075384;28;20052;-66
2022/07/10 02:58:36;;;;;;;6.18;1.90;;;;;;;16.52;57.50;101208.38;5074860;28;20516;-67
2022/07/10 03:01:03;;;;;;;4.50;1.02;;;;;;;16.55;57.63;101212.53;5075199;28;20052;-66
2022/07/10 03:03:32;;;;;;;6.05;1.40;;;;;;;16.52;57.69;101218.81;5062373;28;20429;-66
2022/07/10 03:05:59;;;;;;;3.10;1.25;;;;;;;16.53;57.51;101215.66;5055617;28;20057;-66
2022/07/10 03:08:27;;;;;;;5.28;1.60;;;;;;;16.51;57.54;101208.72;5054914;28;20049;-66
2022/07/10 03:10:54;;;;;;;5.88;1.60;;;;;;;16.47;57.61;101214.19;5055293;28;20053;-66
2022/07/10 03:13:21;;;;;;;4.28;1.20;;;;;;;16.43;57.67;101210.41;5064682;28;20059;-66
2022/07/10 03:15:49;;;;;;;4.00;1.35;;;;;;;16.45;57.72;101213.72;5075022;28;20056;-66
2022/07/10 03:18:16;;;;;;;3.83;1.15;;;;;;;16.46;57.58;101206.91;5074738;28;20055;-66
2022/07/10 03:20:45;;;;;;;4.70;1.63;;;;;;;16.50;57.72;101199.44;5075008;28;20052;-66
2022/07/10 03:23:12;;;;;;;5.03;1.47;;;;;;;16.45;57.73;101205.28;5072614;28;20048;-66
2022/07/10 03:25:39;;;;;;;4.78;1.70;;;;;;;16.50;57.96;101198.63;5074440;28;20052;-66
2022/07/10 03:28:07;;;;;;;4.13;1.38;;;;;;;16.50;57.83;101193.00;5074353;28;20048;-66
2022/07/10 03:30:34;;;;;;;2.88;1.13;;;;;;;16.48;57.91;101196.16;5074101;28;20052;-66
2022/07/10 03:33:03;;;;;;;3.60;1.65;;;;;;;16.46;58.07;101192.84;5072909;28;20048;-66
2022/07/10 03:35:32;;;;;;;2.72;0.93;;;;;;;16.44;57.94;101189.53;5074477;28;20059;-66
2022/07/10 03:38:00;;;;;;;4.60;1.50;;;;;;;16.43;58.17;101193.53;5074897;28;20067;-66
2022/07/10 03:40:29;;;;;;;4.10;1.60;;;;;;;16.43;57.98;101196.34;5074436;28;20060;-66
2022/07/10 03:42:56;;;;;;;6.22;1.50;;;;;;;16.44;58.01;101195.16;5073498;28;20048;-65
2022/07/10 03:45:23;;;;;;;6.57;1.30;;;;;;;16.45;58.08;101194.03;5072605;28;20130;-66
2022/07/10 03:47:50;;;;;;;4.25;1.63;;;;;;;16.42;58.17;101191.88;5074035;28;20052;-66
2022/07/10 03:50:18;;;;;;;5.40;1.45;;;;;;;16.44;58.22;101206.41;5072938;28;20052;-66
2022/07/10 03:52:46;;;;;;;7.78;2.05;;;;;;;16.47;58.09;101211.38;5074083;28;20123;-66
2022/07/10 03:55:15;;;;;;;6.90;1.50;;;;;;;16.49;58.32;101208.25;5071278;28;20056;-66
2022/07/10 03:57:53;;;;;;;4.47;1.40;;;;;;;16.50;58.05;101210.69;5073772;28;20511;-66
2022/07/10 04:00:22;;;;;;;6.13;1.75;;;;;;;16.50;58.02;101207.88;5073978;28;20052;-66
2022/07/10 04:02:56;;;;;;;4.10;1.30;;;;;;;16.52;57.93;101208.38;5073482;28;20052;-66
2022/07/10 04:05:23;;;;;;;4.30;1.17;;;;;;;16.48;58.21;101215.84;5069421;28;20052;-66
2022/07/10 04:07:50;;;;;;;4.22;1.40;;;;;;;16.50;58.46;101202.25;5073888;28;20489;-66
2022/07/10 04:10:20;;;;;;;6.30;1.90;;;;;;;16.51;58.55;101203.09;5073808;28;20044;-66
2022/07/10 04:12:47;;;;;;;;;;;;;;;16.52;58.36;101205.56;5074115;28;20052;-66
2022/07/10 04:15:15;;;;;;;4.47;1.20;;;;;;;16.54;58.35;101206.06;5070614;28;20296;-66
2022/07/10 04:17:42;;;;;;;4.50;1.30;;;;;;;16.56;58.27;101208.53;5073513;28;20075;-66
2022/07/10 04:20:10;;;;;;;4.22;1.27;;;;;;;16.59;58.36;101208.69;5073463;28;20059;-66
2022/07/10 04:22:38;;;;;;;4.78;1.30;;;;;;;16.60;58.54;101207.50;5069362;28;20048;-66
2022/07/10 04:25:06;;;;;;;6.50;1.88;;;;;;;16.64;58.17;101216.13;5053240;28;20056;-66
2022/07/10 04:27:35;;;;;;;4.93;1.40;;;;;;;16.67;58.20;101214.59;5053523;28;20520;-66
2022/07/10 04:30:04;;;;;;;4.28;1.52;;;;;;;16.70;58.27;101214.75;5064585;28;20053;-66
2022/07/10 04:32:31;;;;;;;5.47;1.67;;;;;;;16.62;58.26;101208.00;5072188;28;20044;-66
2022/07/10 04:35:00;;;;;;;4.88;1.40;;;;;;;16.73;58.32;101210.44;5072402;28;20056;-66
2022/07/10 04:37:28;;;;;;;2.67;1.23;;;;;;;16.76;57.84;101206.97;5072866;28;20055;-66
2022/07/10 04:39:55;;;;;;;4.70;1.45;;;;;;;16.72;58.24;101211.63;5073123;28;20057;-66
2022/07/10 04:42:22;;;;;;;5.60;1.30;;;;;;;16.68;58.30;101205.03;5072649;28;20461;-66
2022/07/10 04:44:51;;;;;;;4.30;1.52;;;;;;;16.74;58.30;101212.94;5071034;28;20055;-66
2022/07/10 04:47:19;;;;;;;8.57;1.87;;;;;;;16.76;57.79;101221.03;5072862;28;20056;-66
2022/07/10 04:49:46;;;;;;;4.40;1.38;;;;;;;16.75;58.15;101225.81;5073006;28;20052;-66
2022/07/10 04:52:13;;;;;;;4.25;1.33;;;;;;;16.80;58.00;101231.31;5072899;28;20507;-66
2022/07/10 04:54:40;;;;;;;6.43;1.10;;;;;;;16.81;58.16;101229.31;5070036;28;20500;-66
2022/07/10 04:57:08;;;;;;;4.53;1.42;;;;;;;16.87;57.71;101227.13;5072807;28;20060;-65
2022/07/10 04:59:35;;;;;;;6.75;1.90;;;;;;;16.87;57.82;101225.13;5072940;28;20064;-66
2022/07/10 05:02:04;;;;;;;4.32;1.60;;;;;;;16.91;57.95;101222.47;5071983;28;20056;-66
2022/07/10 05:04:32;;;;;;;5.38;1.48;;;;;;;16.97;57.93;101227.56;5068498;28;20051;-64
2022/07/10 05:06:59;;;;;;;5.40;1.40;;;;;;;17.02;57.33;101221.72;5071711;28;20056;-66
2022/07/10 05:09:27;;;;;;;4.93;1.50;;;;;;;17.01;57.34;101217.28;5072574;28;20079;-66
2022/07/10 05:11:54;;;;;;;7.18;1.75;;;;;;;17.15;57.29;101221.84;5072781;28;20053;-66
2022/07/10 05:14:21;;;;;;;3.22;1.48;;;;;;;17.21;56.99;101218.47;5068127;28;20041;-66
2022/07/10 05:16:48;;;;;;;7.95;1.52;;;;;;;17.19;57.17;101217.97;5072657;28;20049;-66
2022/07/10 05:19:17;;;;;;;6.30;1.52;;;;;;;17.35;56.50;101223.84;5072064;28;20059;-66
2022/07/10 05:21:44;;;;;;;3.67;1.30;;;;;;;17.33;56.32;101217.75;5070726;28;20079;-66
2022/07/10 05:24:12;;;;;;;4.57;1.33;;;;;;;17.39;55.82;101224.81;5070130;28;20158;-66
2022/07/10 05:26:39;;;;;;;3.30;1.48;;;;;;;17.48;56.02;101221.94;5072057;28;20053;-66
2022/07/10 05:29:06;;;;;;;4.80;1.30;;;;;;;17.54;55.77;101220.56;5072077;28;20052;-66
2022/07/10 05:31:34;;;;;;;3.90;1.55;;;;;;;17.58;55.63;101224.34;5071873;28;20488;-66
2022/07/10 05:34:01;;;;;;;5.47;1.55;;;;;;;17.72;55.07;101224.03;5070049;28;20052;-66
2022/07/10 05:36:30;;;;;;;4.68;1.40;;;;;;;17.85;54.89;101225.81;5071894;28;20134;-66
2022/07/10 05:38:57;;;;;;;5.27;1.70;;;;;;;17.97;54.80;101222.19;5071701;28;20079;-65
2022/07/10 05:41:24;;;;;;;4.47;1.33;;;;;;;18.11;54.42;101221.91;5071919;28;20053;-66
2022/07/10 05:43:51;;;;;;;8.77;1.55;;;;;;;18.17;53.67;101219.69;5068936;28;20429;-66
2022/07/10 05:46:19;;;;;;;6.25;1.75;;;;;;;18.22;53.76;101225.09;5071791;28;20484;-67
2022/07/10 05:48:46;;;;;;;4.55;1.83;;;;;;;18.29;53.80;101218.88;5071677;28;20056;-66
2022/07/10 05:51:13;;;;;;;5.32;1.50;;;;;;;18.34;53.13;101225.13;5071292;28;20056;-65
2022/07/10 05:53:42;;;;;;;4.35;1.60;;;;;;;18.41;53.05;101230.19;5067474;28;20040;-64
2022/07/10 05:56:09;;;;;;;6.33;1.37;;;;;;;18.44;52.60;101221.88;5071446;28;20416;-66
2022/07/10 05:58:37;;;;;;;5.25;1.42;;;;;;;18.56;53.06;101215.44;5071779;28;20466;-66
2022/07/10 06:01:04;;;;;;;6.22;1.90;;;;;;;18.65;52.72;101232.25;5071871;28;20477;-66
2022/07/10 06:03:31;;;;;;;3.30;1.35;;;;;;;18.58;53.14;101227.19;5069899;28;20065;-66
2022/07/10 06:05:59;;;;;;;4.38;1.27;;;;;;;18.69;52.67;101233.19;5067382;28;20052;-65
2022/07/10 06:08:26;;;;;;;6.85;1.48;;;;;;;18.70;52.64;101236.84;5071630;28;20083;-66
2022/07/10 06:10:55;;;;;;;6.40;1.42;;;;;;;18.77;52.23;101237.91;5071419;28;20064;-66
2022/07/10 06:13:22;;;;;;;2.87;1.27;;;;;;;18.92;51.96;101238.38;5071025;28;20059;-66
2022/07/10 06:15:49;;;;;;;3.65;1.13;;;;;;;19.04;51.13;101225.09;5069707;28;20491;-67
2022/07/10 06:18:17;;;;;;;4.47;1.40;;;;;;;19.08;51.14;101230.03;5071559;28;20056;-66
2022/07/10 06:20:44;;;;;;;8.35;1.60;;;;;;;19.15;49.65;101225.47;5071802;28;20053;-66
2022/07/10 06:23:11;;;;;;;4.00;1.65;;;;;;;19.22;49.99;101241.81;5069686;28;20053;-66
2022/07/10 06:25:38;;;;;;;4.40;1.58;;;;;;;19.19;49.39;101237.69;5071133;28;20052;-66
2022/07/10 06:28:07;;;;;;;4.00;1.15;;;;;;;19.24;49.67;101237.44;5071192;28;20053;-66
2022/07/10 06:30:35;;;;;;;6.50;1.70;;;;;;;19.26;48.81;101242.75;5071123;28;20077;-66
2022/07/10 06:33:02;;;;;;;4.60;1.48;;;;;;;19.30;48.88;101240.84;5068466;28;20059;-66
2022/07/10 06:35:29;;;;;;;4.82;1.50;;;;;;;19.48;48.49;101239.38;5071395;28;20064;-66
2022/07/10 06:37:56;;;;;;;7.47;1.70;;;;;;;19.74;48.44;101248.66;5071286;28;20052;-66
2022/07/10 06:40:24;;;;;;;3.33;1.30;;;;;;;19.80;48.26;101242.41;5071377;28;20055;-66
2022/07/10 06:42:51;;;;;;;4.90;1.55;;;;;;;19.78;48.26;101236.31;5069028;28;20068;-66
2022/07/10 06:45:20;;;;;;;4.97;1.17;;;;;;;19.89;48.29;101252.75;5069146;28;20532;-66
2022/07/10 06:47:55;;;;;;;3.25;1.58;;;;;;;19.91;47.53;101242.72;5060975;28;20464;-66
2022/07/10 06:50:24;;;;;;;5.55;1.38;;;;;;;20.11;46.72;101231.56;5057520;28;20056;-66
2022/07/10 06:52:52;;;;;;;6.43;1.80;;;;;;;20.22;46.48;101238.31;5057324;28;20049;-66
2022/07/10 06:55:20;;;;;;;3.97;1.52;;;;;;;20.39;46.23;101231.50;5068969;28;20055;-66
2022/07/10 06:57:48;;;;;;;4.97;1.30;;;;;;;20.50;45.70;101229.00;5070956;28;20377;-66
2022/07/10 07:00:16;;;;;;;5.00;1.42;;;;;;;20.64;46.26;101230.22;5071239;28;20048;-64
2022/07/10 07:02:45;;;;;;;4.32;1.25;;;;;;;20.62;45.84;101231.75;5071300;28;20052;-66
2022/07/10 07:05:13;;;;;;;4.47;1.30;;;;;;;20.72;45.80;101228.38;5067504;28;20048;-64
2022/07/10 07:07:40;;;;;;;4.22;1.30;;;;;;;20.68;46.10;101225.47;5060463;28;21162;-65
2022/07/10 07:10:09;;;;;;;3.22;1.13;;;;;;;20.93;45.54;101228.09;5062782;28;20080;-66
2022/07/10 07:12:37;;;;;;;4.50;1.50;;;;;;;21.13;44.80;101226.16;5052674;28;20063;-65
2022/07/10 07:15:06;;;;;;;4.70;1.55;;;;;;;21.24;44.78;101220.72;5059372;28;20040;-66
2022/07/10 07:17:46;;;;;;;4.28;1.50;;;;;;;21.44;44.07;101225.28;5069821;28;20060;-64
2022/07/10 07:23:11;;;;;;;6.38;1.40;;;;;;;21.27;44.15;101217.16;5076439;28;20523;-66
2022/07/10 07:25:41;;;;;;;3.75;1.38;;;;;;;21.03;44.33;101219.03;5071706;28;20049;-66
2022/07/10 07:28:10;;;;;;;5.22;1.50;;;;;;;20.94;44.79;101223.25;5072100;28;20052;-65
2022/07/10 07:30:37;;;;;;;5.63;1.35;;;;;;;20.77;45.06;101224.47;5072512;28;20057;-65
2022/07/10 07:33:04;;;;;;;6.70;1.70;;;;;;;20.63;45.59;101219.25;5074728;28;20052;-66
2022/07/10 07:35:33;;;;;;;5.55;1.67;;;;;;;20.53;45.56;101219.75;5074519;28;20052;-66
2022/07/10 07:38:02;;;;;;;3.80;1.30;;;;;;;20.33;45.53;101216.81;5074138;28;20048;-66
2022/07/10 07:40:30;;;;;;;4.65;1.50;;;;;;;20.15;44.90;101227.63;5070386;28;20044;-66
2022/07/10 07:42:57;;;;;;;4.28;1.40;;;;;;;19.83;45.37;101238.03;5074092;28;20416;-66
2022/07/10 07:45:27;;;;;;;3.05;1.40;;;;;;;19.76;45.42;101238.66;5074013;28;20477;-66
2022/07/10 07:47:57;;;;;;;3.90;1.20;;;;;;;19.52;45.97;101245.16;5074664;28;20405;-66
2022/07/10 07:50:26;;;;;;;7.07;1.55;;;;;;;19.48;46.46;101247.88;5068256;28;20049;-66
2022/07/10 07:52:54;;;;;;;3.40;1.20;;;;;;;19.36;46.92;101236.63;5074347;28;20434;-66
2022/07/10 07:55:23;;;;;;;4.57;1.73;;;;;;;19.35;46.90;101236.97;5073611;28;20053;-66
2022/07/10 07:57:53;;;;;;;5.27;1.37;;;;;;;19.40;46.81;101237.56;5058528;28;20415;-66
2022/07/10 08:00:22;;;;;;;4.15;1.50;;;;;;;19.33;47.33;101236.50;5061434;28;20044;-65
2022/07/10 08:02:50;;;;;;;5.00;1.30;;;;;;;19.38;47.48;101242.72;5074017;28;20060;-66
2022/07/10 08:05:18;;;;;;;4.07;1.42;;;;;;;19.40;48.42;101246.03;5073885;28;20405;-66
2022/07/10 08:07:47;;;;;;;6.03;1.50;;;;;;;19.44;48.73;101252.63;5073668;28;20048;-66
2022/07/10 08:10:18;;;;;;;4.85;1.48;;;;;;;19.40;48.32;101248.84;5067564;28;20474;-65
2022/07/10 08:12:47;;;;;;;5.30;1.67;;;;;;;19.35;48.66;101251.91;5059569;28;20048;-66
2022/07/10 08:15:17;;;;;;;3.67;1.47;;;;;;;19.14;49.35;101251.22;5062717;28;20127;-67
2022/07/10 08:17:47;;;;;;;4.25;1.60;;;;;;;19.27;49.79;101256.50;5064499;28;20150;-66
2022/07/10 08:20:15;;;;;;;4.22;1.33;;;;;;;19.20;49.86;101255.47;5070464;28;20057;-66
2022/07/10 08:22:43;;;;;;;5.35;1.40;;;;;;;19.10;51.00;101256.75;5066628;28;20382;-65
2022/07/10 08:25:11;;;;;;;3.38;1.20;;;;;;;19.15;50.83;101250.88;5067762;28;20052;-66
2022/07/10 08:27:40;;;;;;;3.90;1.33;;;;;;;19.20;50.58;101247.00;5073308;28;20048;-66
2022/07/10 08:30:09;;;;;;;4.35;1.38;;;;;;;19.14;50.78;101248.41;5068835;28;20389;-66
2022/07/10 08:32:37;;;;;;;5.88;1.40;;;;;;;19.15;50.83;101252.84;5071213;28;20528;-64
2022/07/10 08:35:06;;;;;;;5.40;1.13;;;;;;;19.10;50.88;101250.28;5071039;28;20085;-66
2022/07/10 08:37:38;;;;;;;5.47;1.58;;;;;;;18.97;51.68;101257.94;5070621;28;20052;-66
2022/07/10 08:40:07;;;;;;;4.47;1.35;;;;;;;18.92;51.64;101255.34;5062044;28;20053;-66
2022/07/10 08:42:34;;;;;;;5.10;1.10;;;;;;;18.87;51.99;101253.56;5058423;28;20052;-66
2022/07/10 08:45:04;;;;;;;3.53;0.93;;;;;;;18.86;51.99;101249.94;5065494;28;20044;-65
2022/07/10 08:47:35;;;;;;;6.38;1.15;;;;;;;18.92;51.83;101249.69;5062935;28;20067;-66
2022/07/10 08:50:02;;;;;;;6.28;1.10;;;;;;;18.92;51.72;101255.34;5053302;28;20078;-66
2022/07/10 08:52:35;;;;;;;5.65;1.13;;;;;;;18.98;51.61;101251.94;5054768;28;20497;-66
2022/07/10 08:55:02;;;;;;;5.68;1.58;;;;;;;18.89;51.71;101248.41;5062904;28;20052;-66
2022/07/10 08:57:31;;;;;;;4.43;1.50;;;;;;;18.96;51.89;101242.16;5068455;28;20473;-66
2022/07/10 08:59:58;;;;;;;4.07;1.30;;;;;;;19.00;51.92;101246.78;5072150;28;20477;-66
2022/07/10 09:02:27;;;;;;;5.30;1.40;;;;;;;19.10;51.85;101245.44;5068808;28;20063;-65
2022/07/10 09:04:55;;;;;;;4.50;1.13;;;;;;;19.14;51.75;101240.75;5069619;28;20044;-66
2022/07/10 09:07:22;;;;;;;3.28;1.50;;;;;;;19.18;51.22;101244.50;5054762;28;20795;-63
2022/07/10 09:09:54;;;;;;;4.95;1.50;;;;;;;19.32;51.50;101246.97;5053637;28;20064;-66
2022/07/10 09:12:22;;;;;;;5.40;1.25;;;;;;;19.30;51.44;101245.66;5060179;28;20049;-66
2022/07/10 09:14:50;;;;;;;6.35;1.30;;;;;;;19.34;51.39;101247.44;5071457;28;20071;-66
2022/07/10 09:17:17;;;;;;;3.30;1.42;;;;;;;19.40;51.60;101243.19;5070507;28;20048;-66
2022/07/10 09:19:46;;;;;;;4.78;1.27;;;;;;;19.56;51.56;101248.09;5071039;28;20393;-65
2022/07/10 09:22:14;;;;;;;5.10;1.40;;;;;;;19.83;51.04;101253.00;5069562;28;20056;-66
2022/07/10 09:24:44;;;;;;;4.43;1.45;;;;;;;20.12;50.61;101245.34;5067054;28;20063;-65
2022/07/10 09:27:14;;;;;;;6.07;1.55;;;;;;;20.22;50.58;101253.31;5057106;28;20493;-66
2022/07/10 09:29:47;;;;;;;;;;;;;;;20.00;50.60;101251.06;5071627;28;20049;-66
2022/07/10 09:32:17;;;;;;;6.90;1.92;;;;;;;20.02;50.74;101254.34;5053628;28;19932;-65
2022/07/10 09:34:48;;;;;;;6.22;1.85;;;;;;;19.95;51.47;101252.13;5064929;28;20519;-64
2022/07/10 09:37:20;;;;;;;7.55;1.67;;;;;;;19.90;51.43;101246.72;5063292;28;20052;-64
2022/07/10 09:39:55;;;;;;;5.20;1.50;;;;;;;19.93;51.72;101253.66;5059739;28;20048;-65
2022/07/10 09:42:29;;;;;;;6.20;2.00;;;;;;;19.75;52.07;101259.63;5070398;28;20048;-65
2022/07/10 09:45:18;;;;;;;6.13;2.15;;;;;;;19.90;52.38;101254.38;5061749;28;20401;-65
2022/07/10 09:47:46;;;;;;;5.13;1.70;;;;;;;19.96;53.17;101247.31;5069648;28;20064;-64
2022/07/10 09:50:24;;;;;;;6.38;1.90;;;;;;;20.39;53.23;101243.66;5066922;28;20401;-65
2022/07/10 09:52:54;;;;;;;5.22;1.55;;;;;;;20.59;52.72;101246.63;5070405;28;20151;-65
2022/07/10 09:55:22;;;;;;;5.50;1.80;;;;;;;20.54;52.48;101242.03;5065902;28;20049;-65
2022/07/10 09:57:57;;;;;;;5.18;1.65;;;;;;;20.64;52.10;101235.88;5065052;28;20053;-65
2022/07/10 10:00:27;;;;;;;5.18;1.70;;;;;;;20.73;51.89;101240.53;5067128;28;20052;-64
2022/07/10 10:02:59;;;;;;;4.55;1.92;;;;;;;20.94;51.04;101232.56;5071017;28;20055;-65
2022/07/10 10:05:35;;;;;;;5.20;1.77;;;;;;;21.24;50.50;101232.88;5053698;28;20045;-64
2022/07/10 10:08:10;;;;;;;3.08;1.40;;;;;;;21.44;50.23;101230.94;5069803;28;20075;-64
2022/07/10 10:10:41;;;;;;;6.70;2.03;;;;;;;21.44;49.51;101224.44;5070552;28;20048;-64
2022/07/10 10:13:11;;;;;;;4.45;1.65;;;;;;;21.43;49.57;101234.97;5067468;28;20413;-66
2022/07/10 10:15:39;;;;;;;5.97;1.77;;;;;;;21.40;49.83;101230.03;5065763;28;20049;-66
2022/07/10 10:18:07;;;;;;;6.35;2.00;;;;;;;21.29;50.34;101226.94;5062769;28;20057;-65
2022/07/10 10:20:37;;;;;;;5.10;1.77;;;;;;;21.28;50.15;101224.47;5064672;28;20052;-66
2022/07/10 10:23:05;;;;;;;4.57;1.52;;;;;;;21.19;50.69;101226.69;5070435;28;20079;-64
2022/07/10 10:25:34;;;;;;;3.83;1.50;;;;;;;21.11;51.57;101225.69;5060411;28;20048;-65
2022/07/10 10:28:03;;;;;;;4.00;1.52;;;;;;;21.17;51.25;101221.41;5069244;28;20044;-66
2022/07/10 10:30:31;;;;;;;3.92;2.22;;;;;;;21.07;51.92;101225.59;5070294;28;20064;-65
2022/07/10 10:32:59;;;;;;;3.30;1.60;;;;;;;21.25;51.71;101222.34;5071568;28;20052;-66
2022/07/10 10:35:47;;;;;;;5.35;1.75;;;;;;;21.23;51.80;101219.91;5068653;28;20606;-65
2022/07/10 10:38:16;;;;;;;4.32;1.95;;;;;;;21.34;51.73;101217.31;5071393;28;20064;-65
2022/07/10 10:40:43;;;;;;;6.40;1.58;;;;;;;21.17;51.34;101221.41;5071331;28;20055;-65
2022/07/10 10:43:19;;;;;;;4.35;1.70;;;;;;;20.97;51.75;101223.31;5071210;28;20049;-65
2022/07/10 10:45:47;;;;;;;3.58;1.73;;;;;;;20.93;52.19;101224.44;5065055;28;20053;-65
2022/07/10 10:48:15;;;;;;;3.90;2.00;;;;;;;20.60;53.01;101214.31;5065810;28;20048;-66
2022/07/10 10:50:43;;;;;;;3.83;1.85;;;;;;;20.26;54.31;101225.94;5071479;28;20052;-65
2022/07/10 10:53:17;;;;;;;2.90;1.90;;;;;;;20.25;54.73;101214.97;5071432;28;20412;-65
2022/07/10 10:56:22;;;;;;;3.63;1.70;;;;;;;20.25;55.03;101215.81;5068151;28;20045;-66
2022/07/10 10:58:49;;;;;;;7.93;2.40;;;;;;;20.32;55.15;101217.19;5070746;28;20056;-65
2022/07/10 11:01:28;;;;;;;5.90;2.00;;;;;;;20.30;55.55;101211.88;5073465;28;20048;-65
2022/07/10 11:04:17;;;;;;;6.13;2.20;;;;;;;20.40;55.04;101219.03;5075058;28;20492;-65
2022/07/10 11:06:47;;;;;;;3.53;1.88;;;;;;;20.42;55.36;101211.81;5070843;28;20479;-66
2022/07/10 11:09:28;;;;;;;4.15;2.17;;;;;;;20.36;55.38;101210.44;5074691;28;20052;-66
2022/07/10 11:12:04;;;;;;;3.60;2.30;;;;;;;20.38;55.84;101208.06;5074594;28;20056;-65
2022/07/10 11:14:33;;;;;;;3.95;2.22;;;;;;;20.40;55.88;101208.50;5074687;28;20418;-65
2022/07/10 11:17:01;;;;;;;2.63;1.80;;;;;;;20.41;55.31;101212.16;5060706;28;20049;-66
2022/07/10 11:19:29;;;;;;;3.38;2.10;;;;;;;20.40;55.90;101207.69;5074448;28;20048;-65
2022/07/10 11:22:12;;;;;;;3.08;1.88;;;;;;;20.37;56.31;101211.25;5074715;28;20052;-65
2022/07/10 11:24:52;;;;;;;3.47;1.95;;;;;;;20.37;56.60;101205.59;5073897;28;20060;-65
2022/07/10 11:27:51;;;;;;;2.67;1.80;;;;;;;20.28;57.66;101208.59;5071973;28;20449;-65
2022/07/10 11:30:18;;;;;;;3.35;2.22;;;;;;;20.27;57.66;101209.78;5074740;28;20066;-66
2022/07/10 11:32:46;;;;;;;3.60;2.42;;;;;;;20.28;57.88;101205.75;5073989;28;20052;-64
2022/07/10 11:35:13;;;;;;;3.35;2.25;;;;;;;20.09;59.14;101209.28;5074221;28;20059;-64
2022/07/10 11:37:50;;;;;;;4.10;2.35;;;;;;;20.16;58.70;101217.13;5071512;28;20053;-67
2022/07/10 11:40:20;;;;;;;3.35;2.40;;;;;;;20.26;58.06;101199.63;5073548;28;20056;-66